Allouez, Wisconsin
Current Conditions -  °F | °C
As of 5:53 PM on Tuesday 25 Nov 2014 (Local Time) from KGRB Reporting Station
Overcast Overcast  
Wind Chill: -11°   Ceiling: 1600
Heat Index: -6°   Visibility: 10mi
Dew Point: -9°   Wind: 9mph
Humidity: 78%   Direction: 240°WSW
Pressure: 30.11"   Gusts: NA
Location:  44.48°N, 88.02°W
Report Text: KGRB 252353Z AUTO 24008KT 10SM OVC016 M06/M09 A3011 RMK AO2 SLP209 T10561089 11039 21056 51018 TSNO
Loading
Personal Weather Stations






























Interactive Weather Map New forecast layout! Learn more

10-Day Weather Forecast

Advertisements
Track Severe Weather on mobile